^^
Station Historical Data
Daily Summary for January 30, 2018 Units:  Both    English   Metric
« Previous Day
Next Day »
Daily Weekly Monthly Yearly Custom
  High: Low: Average:
Temperature: TemperatureC °F /  -17.8 °C -3.6 °F /  -19.8 °C -2.3 °F /  -19.1 °C
Dew Point: DewpointC °F /  -17.8 °C -4.9 °F /  -20.5 °C -3.3 °F /  -19.6 °C
Humidity: Humidity% 91% 93%
Wind Speed: WindSpeedKMHmph /  0km/h - 0.5mph /  0.8km/h
Wind Gust: WindSpeedGustKMHmph /  0km/h - -
Wind- - ENE
Pressure: PressurehPa in /  0 hPa 997.9 in /  33788.9 hPa -
Precipitation: 0.5 in /  12.7 mm    
Historical Graphs
 
 
Tabular Data for January 30, 2018
Time Temperature Dew Point Pressure Wind Wind Speed Wind Gust Humidity Rainfall Rate (Hourly) solar Conditions
TemperatureC °F /  -17.8 °C DewpointC °F /  -17.8 °C PressurehPain /  0hPa Calm     Humidity% HourlyPrecipMMin /  0mm SoftwareType W/m2 Conditions
00:00 -1.0 °F /  -18.3 °C -1.8 °F /  -18.8 °C 998.5in /  33809.2hPa ENE 2.6mph /  4.2km/h 5.6mph /  9km/h 94% 0.0in /  0mm WeatherDisplay:10.37 W/m2 FEW
00:05 -1.1 °F /  -18.4 °C -1.9 °F /  -18.8 °C 998.5in /  33809.2hPa ENE 1.6mph /  2.6km/h 6.4mph /  10.3km/h 94% 0.0in /  0mm WeatherDisplay:10.37 W/m2 FEW
00:10 -1.1 °F /  -18.4 °C -1.9 °F /  -18.8 °C 998.5in /  33809.2hPa ENE 1.0mph /  1.6km/h 1.6mph /  2.6km/h 94% 0.0in /  0mm WeatherDisplay:10.37 W/m2 FEW
00:15 -1.1 °F /  -18.4 °C -1.9 °F /  -18.8 °C 998.5in /  33809.2hPa ENE 0.3mph /  0.5km/h 3.7mph /  6km/h 94% 0.0in /  0mm WeatherDisplay:10.37 W/m2 FEW
00:20 -1.1 °F /  -18.4 °C -1.9 °F /  -18.8 °C 998.5in /  33809.2hPa Calm   3.7mph /  6km/h 94% 0.0in /  0mm WeatherDisplay:10.37 W/m2 FEW
00:25 -1.1 °F /  -18.4 °C -1.9 °F /  -18.8 °C 998.5in /  33809.2hPa ENE 0.8mph /  1.3km/h 5.6mph /  9km/h 94% 0.0in /  0mm WeatherDisplay:10.37 W/m2 FEW
00:30 -1.1 °F /  -18.4 °C -1.9 °F /  -18.8 °C 998.5in /  33809.2hPa Calm     94% 0.0in /  0mm WeatherDisplay:10.37 W/m2 FEW
00:35 -1.1 °F /  -18.4 °C -1.9 °F /  -18.8 °C 998.5in /  33809.2hPa NE 4.2mph /  6.8km/h 9.3mph /  15km/h 94% 0.0in /  0mm WeatherDisplay:10.37 W/m2 FEW
00:40 -1.1 °F /  -18.4 °C -1.9 °F /  -18.8 °C 998.5in /  33809.2hPa ENE 6.0mph /  9.7km/h 11.1mph /  17.9km/h 94% 0.0in /  0mm WeatherDisplay:10.37 W/m2 FEW
00:45 -1.1 °F /  -18.4 °C -1.9 °F /  -18.8 °C 998.5in /  33809.2hPa ENE 5.6mph /  9km/h 9.3mph /  15km/h 94% 0.0in /  0mm WeatherDisplay:10.37 W/m2 FEW
00:50 -1.2 °F /  -18.4 °C -2.0 °F /  -18.9 °C 998.5in /  33809.2hPa ENE 3.9mph /  6.3km/h 9.3mph /  15km/h 94% 0.0in /  0mm WeatherDisplay:10.37 W/m2 FEW
00:55 -1.2 °F /  -18.4 °C -2.0 °F /  -18.9 °C 998.5in /  33809.2hPa ENE 4.8mph /  7.7km/h 14.8mph /  23.8km/h 94% 0.0in /  0mm WeatherDisplay:10.37 W/m2 FEW
01:00 -1.2 °F /  -18.4 °C -2.0 °F /  -18.9 °C 998.5in /  33809.2hPa Calm     94% 0.0in /  0mm WeatherDisplay:10.37 W/m2 FEW
01:05 -1.2 °F /  -18.4 °C -2.0 °F /  -18.9 °C 998.5in /  33809.2hPa ENE 3.5mph /  5.6km/h 8.0mph /  12.9km/h 94% 0.0in /  0mm WeatherDisplay:10.37 W/m2 FEW
01:10 -1.2 °F /  -18.4 °C -2.0 °F /  -18.9 °C 998.5in /  33809.2hPa ENE 1.6mph /  2.6km/h 5.6mph /  9km/h 94% 0.0in /  0mm WeatherDisplay:10.37 W/m2 FEW
01:15 -1.2 °F /  -18.4 °C -2.1 °F /  -18.9 °C 998.5in /  33809.2hPa Calm     94% 0.0in /  0mm WeatherDisplay:10.37 W/m2 FEW
01:20 -1.2 °F /  -18.4 °C -2.1 °F /  -18.9 °C 998.5in /  33809.2hPa Calm     94% 0.0in /  0mm WeatherDisplay:10.37 W/m2 FEW
01:25 -1.2 °F /  -18.4 °C -2.1 °F /  -18.9 °C 998.5in /  33809.2hPa ENE 1.3mph /  2.1km/h 3.7mph /  6km/h 94% 0.0in /  0mm WeatherDisplay:10.37 W/m2 FEW
01:30 -1.2 °F /  -18.4 °C -2.0 °F /  -18.9 °C 998.5in /  33809.2hPa ENE 1.3mph /  2.1km/h 5.6mph /  9km/h 94% 0.0in /  0mm WeatherDisplay:10.37 W/m2 FEW
01:35 -1.2 °F /  -18.4 °C -2.0 °F /  -18.9 °C 998.2in /  33799.1hPa Calm   7.4mph /  11.9km/h 94% 0.0in /  0mm WeatherDisplay:10.37 W/m2 FEW
01:40 -1.2 °F /  -18.4 °C -2.0 °F /  -18.9 °C 998.2in /  33799.1hPa Calm     94% 0.0in /  0mm WeatherDisplay:10.37 W/m2 FEW
01:45 -1.2 °F /  -18.4 °C -2.0 °F /  -18.9 °C 998.2in /  33799.1hPa ENE 4.8mph /  7.7km/h 7.4mph /  11.9km/h 94% 0.0in /  0mm WeatherDisplay:10.37 W/m2 FEW
01:50 -1.2 °F /  -18.4 °C -2.1 °F /  -18.9 °C 998.2in /  33799.1hPa ENE 1.9mph /  3.1km/h 5.6mph /  9km/h 94% 0.0in /  0mm WeatherDisplay:10.37 W/m2 FEW
01:55 -1.2 °F /  -18.4 °C -2.1 °F /  -18.9 °C 998.2in /  33799.1hPa ENE 0.8mph /  1.3km/h 3.7mph /  6km/h 94% 0.0in /  0mm WeatherDisplay:10.37 W/m2 FEW
02:00 -1.2 °F /  -18.4 °C -2.1 °F /  -18.9 °C 998.2in /  33799.1hPa ENE 3.9mph /  6.3km/h 7.4mph /  11.9km/h 94% 0.0in /  0mm WeatherDisplay:10.37 W/m2 FEW
02:05 -1.2 °F /  -18.4 °C -2.1 °F /  -18.9 °C 998.2in /  33799.1hPa Calm     94% 0.0in /  0mm WeatherDisplay:10.37 W/m2 FEW
02:10 -1.2 °F /  -18.4 °C -2.1 °F /  -18.9 °C 998.2in /  33799.1hPa ENE 1.1mph /  1.8km/h 5.6mph /  9km/h 94% 0.0in /  0mm WeatherDisplay:10.37 W/m2 FEW
02:15 -1.2 °F /  -18.4 °C -2.1 °F /  -18.9 °C 998.2in /  33799.1hPa Calm     94% 0.0in /  0mm WeatherDisplay:10.37 W/m2 FEW
02:20 -1.2 °F /  -18.4 °C -2.1 °F /  -18.9 °C 998.2in /  33799.1hPa Calm   3.7mph /  6km/h 94% 0.0in /  0mm WeatherDisplay:10.37 W/m2 FEW
02:25 -1.2 °F /  -18.4 °C -2.1 °F /  -18.9 °C 998.2in /  33799.1hPa ENE 2.1mph /  3.4km/h 8.0mph /  12.9km/h 94% 0.0in /  0mm WeatherDisplay:10.37 W/m2 FEW
02:30 -1.3 °F /  -18.5 °C -2.1 °F /  -18.9 °C 998.2in /  33799.1hPa ENE 5.5mph /  8.9km/h 9.3mph /  15km/h 94% 0.0in /  0mm WeatherDisplay:10.37 W/m2 FEW
02:35 -1.3 °F /  -18.5 °C -2.1 °F /  -18.9 °C 998.2in /  33799.1hPa ENE 0.2mph /  0.3km/h 3.2mph /  5.1km/h 94% 0.0in /  0mm WeatherDisplay:10.37 W/m2 FEW
02:40 -1.3 °F /  -18.5 °C -2.1 °F /  -18.9 °C 998.2in /  33799.1hPa ENE 5.8mph /  9.3km/h 9.3mph /  15km/h 94% 0.0in /  0mm WeatherDisplay:10.37 W/m2 FEW
02:45 -1.3 °F /  -18.5 °C -2.1 °F /  -18.9 °C 997.9in /  33788.9hPa ENE 1.1mph /  1.8km/h 5.6mph /  9km/h 94% 0.0in /  0mm WeatherDisplay:10.37 W/m2 FEW
02:50 -1.3 °F /  -18.5 °C -2.1 °F /  -18.9 °C 997.9in /  33788.9hPa Calm     94% 0.0in /  0mm WeatherDisplay:10.37 W/m2 FEW
02:55 -1.3 °F /  -18.5 °C -2.1 °F /  -18.9 °C 998.2in /  33799.1hPa NE 0.2mph /  0.3km/h 1.6mph /  2.6km/h 94% 0.0in /  0mm WeatherDisplay:10.37 W/m2 FEW
03:00 -1.3 °F /  -18.5 °C -2.1 °F /  -18.9 °C 998.2in /  33799.1hPa Calm     94% 0.0in /  0mm WeatherDisplay:10.37 W/m2 FEW
03:05 -1.3 °F /  -18.5 °C -2.1 °F /  -18.9 °C 997.9in /  33788.9hPa ENE 1.1mph /  1.8km/h 7.4mph /  11.9km/h 94% 0.0in /  0mm WeatherDisplay:10.37 W/m2 FEW
03:10 -1.3 °F /  -18.5 °C -2.2 °F /  -19 °C 998.2in /  33799.1hPa ENE 2.1mph /  3.4km/h 5.6mph /  9km/h 94% 0.0in /  0mm WeatherDisplay:10.37 W/m2 FEW
03:15 -1.3 °F /  -18.5 °C -2.2 °F /  -19 °C 997.9in /  33788.9hPa ENE 1.8mph /  2.9km/h 14.5mph /  23.3km/h 94% 0.0in /  0mm WeatherDisplay:10.37 W/m2 FEW
03:20 -1.4 °F /  -18.6 °C -2.2 °F /  -19 °C 997.9in /  33788.9hPa ENE 2.9mph /  4.7km/h 5.6mph /  9km/h 94% 0.0in /  0mm WeatherDisplay:10.37 W/m2 FEW
03:25 -1.4 °F /  -18.6 °C -2.2 °F /  -19 °C 997.9in /  33788.9hPa Calm   1.9mph /  3.1km/h 94% 0.0in /  0mm WeatherDisplay:10.37 W/m2 FEW
03:30 -1.4 °F /  -18.6 °C -2.3 °F /  -19.1 °C 997.9in /  33788.9hPa ENE 3.1mph /  5km/h 5.6mph /  9km/h 94% 0.0in /  0mm WeatherDisplay:10.37 W/m2 FEW
03:35 -1.4 °F /  -18.6 °C -2.3 °F /  -19.1 °C 997.9in /  33788.9hPa ENE 9.2mph /  14.8km/h 14.8mph /  23.8km/h 94% 0.0in /  0mm WeatherDisplay:10.37 W/m2 FEW
03:40 -1.4 °F /  -18.6 °C -2.3 °F /  -19.1 °C 997.9in /  33788.9hPa Calm   7.4mph /  11.9km/h 94% 0.0in /  0mm WeatherDisplay:10.37 W/m2 FEW
03:45 -1.4 °F /  -18.6 °C -2.3 °F /  -19.1 °C 997.9in /  33788.9hPa ENE 0.6mph /  1km/h 4.8mph /  7.7km/h 94% 0.0in /  0mm WeatherDisplay:10.37 W/m2 FEW
03:50 -1.4 °F /  -18.6 °C -2.3 °F /  -19.1 °C 997.9in /  33788.9hPa ENE 2.7mph /  4.3km/h 5.6mph /  9km/h 94% 0.0in /  0mm WeatherDisplay:10.37 W/m2 FEW
03:55 -1.5 °F /  -18.6 °C -2.3 °F /  -19.1 °C 997.9in /  33788.9hPa ENE 3.2mph /  5.1km/h 9.3mph /  15km/h 94% 0.0in /  0mm WeatherDisplay:10.37 W/m2 FEW
04:00 -1.5 °F /  -18.6 °C -2.3 °F /  -19.1 °C 997.9in /  33788.9hPa Calm     94% 0.0in /  0mm WeatherDisplay:10.37 W/m2 FEW
04:05 -1.6 °F /  -18.7 °C -2.4 °F /  -19.1 °C 997.9in /  33788.9hPa ENE 1.9mph /  3.1km/h 12.9mph /  20.8km/h 94% 0.0in /  0mm WeatherDisplay:10.37 W/m2 FEW
04:10 -1.6 °F /  -18.7 °C -2.4 °F /  -19.1 °C 997.9in /  33788.9hPa Calm   5.6mph /  9km/h 94% 0.0in /  0mm WeatherDisplay:10.37 W/m2 FEW
04:15 -1.6 °F /  -18.7 °C -2.4 °F /  -19.1 °C 997.9in /  33788.9hPa ENE 0.8mph /  1.3km/h 5.6mph /  9km/h 94% 0.0in /  0mm WeatherDisplay:10.37 W/m2 FEW
04:20 -1.6 °F /  -18.7 °C -2.4 °F /  -19.1 °C 997.9in /  33788.9hPa ENE 1.9mph /  3.1km/h 5.6mph /  9km/h 94% 0.0in /  0mm WeatherDisplay:10.37 W/m2 FEW
04:25 -1.6 °F /  -18.7 °C -2.6 °F /  -19.2 °C 997.9in /  33788.9hPa ENE 0.6mph /  1km/h 3.7mph /  6km/h 93% 0.0in /  0mm WeatherDisplay:10.37 W/m2 FEW
04:30 -1.6 °F /  -18.7 °C -2.6 °F /  -19.2 °C 997.9in /  33788.9hPa ENE 2.7mph /  4.3km/h 5.6mph /  9km/h 93% 0.0in /  0mm WeatherDisplay:10.37 W/m2 FEW
04:35 -1.6 °F /  -18.7 °C -2.6 °F /  -19.2 °C 997.9in /  33788.9hPa ENE 0.3mph /  0.5km/h 5.6mph /  9km/h 93% 0.0in /  0mm WeatherDisplay:10.37 W/m2 FEW
04:40 -1.6 °F /  -18.7 °C -2.6 °F /  -19.2 °C 997.9in /  33788.9hPa ENE 0.3mph /  0.5km/h 5.6mph /  9km/h 93% 0.0in /  0mm WeatherDisplay:10.37 W/m2 FEW
04:45 -1.6 °F /  -18.7 °C -2.6 °F /  -19.2 °C 997.9in /  33788.9hPa ENE 2.4mph /  3.9km/h 5.6mph /  9km/h 93% 0.0in /  0mm WeatherDisplay:10.37 W/m2 FEW
04:50 -1.6 °F /  -18.7 °C -2.6 °F /  -19.2 °C 997.9in /  33788.9hPa ENE 0.2mph /  0.3km/h 3.2mph /  5.1km/h 93% 0.0in /  0mm WeatherDisplay:10.37 W/m2 FEW
04:55 -1.7 °F /  -18.7 °C -2.7 °F /  -19.3 °C 997.9in /  33788.9hPa Calm     93% 0.0in /  0mm WeatherDisplay:10.37 W/m2 FEW
05:00 -1.7 °F /  -18.7 °C -2.7 °F /  -19.3 °C 997.9in /  33788.9hPa Calm     93% 0.0in /  0mm WeatherDisplay:10.37 W/m2 FEW
05:05 -1.7 °F /  -18.7 °C -2.7 °F /  -19.3 °C 997.9in /  33788.9hPa Calm   3.2mph /  5.1km/h 93% 0.0in /  0mm WeatherDisplay:10.37 W/m2 FEW
05:10 -1.7 °F /  -18.7 °C -2.7 °F /  -19.3 °C 998.2in /  33799.1hPa Calm     93% 0.0in /  0mm WeatherDisplay:10.37 W/m2 FEW
05:15 -1.7 °F /  -18.7 °C -2.7 °F /  -19.3 °C 998.2in /  33799.1hPa ENE 0.5mph /  0.8km/h 7.4mph /  11.9km/h 93% 0.0in /  0mm WeatherDisplay:10.37 W/m2 FEW
05:20 -1.7 °F /  -18.7 °C -2.7 °F /  -19.3 °C 998.2in /  33799.1hPa Calm     93% 0.0in /  0mm WeatherDisplay:10.37 W/m2 FEW
05:25 -1.7 °F /  -18.7 °C -2.7 °F /  -19.3 °C 998.2in /  33799.1hPa Calm     93% 0.0in /  0mm WeatherDisplay:10.37 W/m2 FEW
05:30 -1.7 °F /  -18.7 °C -2.7 °F /  -19.3 °C 998.2in /  33799.1hPa Calm     93% 0.0in /  0mm WeatherDisplay:10.37 W/m2 FEW
05:35 -1.7 °F /  -18.7 °C -2.7 °F /  -19.3 °C 998.2in /  33799.1hPa ENE 0.2mph /  0.3km/h 3.7mph /  6km/h 93% 0.0in /  0mm WeatherDisplay:10.37 W/m2 FEW
05:40 -1.7 °F /  -18.7 °C -2.7 °F /  -19.3 °C 998.2in /  33799.1hPa Calm     93% 0.0in /  0mm WeatherDisplay:10.37 W/m2 FEW
05:45 -1.7 °F /  -18.7 °C -2.7 °F /  -19.3 °C 998.2in /  33799.1hPa Calm   3.7mph /  6km/h 93% 0.0in /  0mm WeatherDisplay:10.37 W/m2 FEW
05:50 -1.7 °F /  -18.7 °C -2.7 °F /  -19.3 °C 998.2in /  33799.1hPa ENE 0.6mph /  1km/h 4.8mph /  7.7km/h 93% 0.0in /  0mm WeatherDisplay:10.37 W/m2 FEW
05:55 -1.7 °F /  -18.7 °C -2.7 °F /  -19.3 °C 998.2in /  33799.1hPa Calm   3.7mph /  6km/h 93% 0.0in /  0mm WeatherDisplay:10.37 W/m2 FEW
06:00 -1.7 °F /  -18.7 °C -2.7 °F /  -19.3 °C 998.2in /  33799.1hPa Calm     93% 0.0in /  0mm WeatherDisplay:10.37 W/m2 FEW
06:05 -1.7 °F /  -18.7 °C -2.7 °F /  -19.3 °C 998.2in /  33799.1hPa ENE 2.9mph /  4.7km/h 5.6mph /  9km/h 93% 0.0in /  0mm WeatherDisplay:10.37 W/m2 FEW
06:10 -1.8 °F /  -18.8 °C -2.8 °F /  -19.3 °C 998.2in /  33799.1hPa Calm     93% 0.0in /  0mm WeatherDisplay:10.37 W/m2 FEW
06:15 -1.8 °F /  -18.8 °C -2.8 °F /  -19.3 °C 998.2in /  33799.1hPa ENE 0.2mph /  0.3km/h 1.9mph /  3.1km/h 93% 0.0in /  0mm WeatherDisplay:10.37 W/m2 FEW
06:20 -1.8 °F /  -18.8 °C -2.8 °F /  -19.3 °C 998.2in /  33799.1hPa Calm     93% 0.0in /  0mm WeatherDisplay:10.37 W/m2 FEW
06:25 -1.8 °F /  -18.8 °C -2.8 °F /  -19.3 °C 998.2in /  33799.1hPa ENE 1.0mph /  1.6km/h 4.8mph /  7.7km/h 93% 0.0in /  0mm WeatherDisplay:10.37 W/m2 FEW
06:30 -1.8 °F /  -18.8 °C -2.8 °F /  -19.3 °C 998.2in /  33799.1hPa ENE 0.5mph /  0.8km/h 3.2mph /  5.1km/h 93% 0.0in /  0mm WeatherDisplay:10.37 W/m2 FEW
06:35 -1.8 °F /  -18.8 °C -2.8 °F /  -19.3 °C 998.2in /  33799.1hPa ENE 2.1mph /  3.4km/h 5.6mph /  9km/h 93% 0.0in /  0mm WeatherDisplay:10.37 W/m2 FEW
06:40 -1.8 °F /  -18.8 °C -2.8 °F /  -19.3 °C 998.5in /  33809.2hPa ENE 1.0mph /  1.6km/h 3.7mph /  6km/h 93% 0.0in /  0mm WeatherDisplay:10.37 W/m2 FEW
06:45 -1.8 °F /  -18.8 °C -2.8 °F /  -19.3 °C 998.5in /  33809.2hPa Calm   3.7mph /  6km/h 93% 0.0in /  0mm WeatherDisplay:10.37 W/m2 FEW
06:50 -1.8 °F /  -18.8 °C -2.8 °F /  -19.3 °C 998.5in /  33809.2hPa ENE 1.0mph /  1.6km/h 3.2mph /  5.1km/h 93% 0.0in /  0mm WeatherDisplay:10.37 W/m2 FEW
06:55 -1.8 °F /  -18.8 °C -2.8 °F /  -19.3 °C 998.5in /  33809.2hPa Calm     93% 0.0in /  0mm WeatherDisplay:10.37 W/m2 FEW
07:00 -1.8 °F /  -18.8 °C -2.8 °F /  -19.3 °C 998.5in /  33809.2hPa ENE 0.2mph /  0.3km/h 1.9mph /  3.1km/h 93% 0.0in /  0mm WeatherDisplay:10.37 W/m2 FEW
07:05 -1.8 °F /  -18.8 °C -2.8 °F /  -19.3 °C 998.5in /  33809.2hPa Calm     93% 0.0in /  0mm WeatherDisplay:10.37 W/m2 FEW
07:10 -1.9 °F /  -18.8 °C -2.9 °F /  -19.4 °C 998.5in /  33809.2hPa Calm     93% 0.0in /  0mm WeatherDisplay:10.37 W/m2 FEW
07:15 -1.9 °F /  -18.8 °C -2.9 °F /  -19.4 °C 998.5in /  33809.2hPa Calm     93% 0.0in /  0mm WeatherDisplay:10.37 W/m2 FEW
07:20 -1.9 °F /  -18.8 °C -2.9 °F /  -19.4 °C 998.5in /  33809.2hPa Calm     93% 0.0in /  0mm WeatherDisplay:10.37 W/m2 FEW
07:25 -1.9 °F /  -18.8 °C -2.9 °F /  -19.4 °C 998.9in /  33822.8hPa Calm     93% 0.0in /  0mm WeatherDisplay:10.37 W/m2 FEW
07:30 -1.9 °F /  -18.8 °C -2.9 °F /  -19.4 °C 998.9in /  33822.8hPa Calm     93% 0.0in /  0mm WeatherDisplay:10.37 W/m2 FEW
07:35 -1.9 °F /  -18.8 °C -2.9 °F /  -19.4 °C 998.5in /  33809.2hPa Calm     93% 0.0in /  0mm WeatherDisplay:10.37 W/m2 FEW
07:40 -1.9 °F /  -18.8 °C -2.9 °F /  -19.4 °C 998.9in /  33822.8hPa Calm     93% 0.0in /  0mm WeatherDisplay:10.37 W/m2 FEW
07:45 -2.0 °F /  -18.9 °C -3.0 °F /  -19.4 °C 998.9in /  33822.8hPa Calm     93% 0.0in /  0mm WeatherDisplay:10.37 W/m2 FEW
07:50 -2.0 °F /  -18.9 °C -3.0 °F /  -19.4 °C 998.9in /  33822.8hPa Calm     93% 0.0in /  0mm WeatherDisplay:10.37 W/m2 FEW
07:55 -2.0 °F /  -18.9 °C -3.0 °F /  -19.4 °C 998.9in /  33822.8hPa Calm     93% 0.0in /  0mm WeatherDisplay:10.37 W/m2 FEW
08:00 -2.0 °F /  -18.9 °C -3.0 °F /  -19.4 °C 998.9in /  33822.8hPa Calm     93% 0.3in /  7.62mm WeatherDisplay:10.37 W/m2 RA
08:05 -2.0 °F /  -18.9 °C -3.0 °F /  -19.4 °C 998.9in /  33822.8hPa Calm     93% 0.3in /  7.62mm WeatherDisplay:10.37 W/m2 RA
08:10 -2.1 °F /  -18.9 °C -3.1 °F /  -19.5 °C 998.9in /  33822.8hPa Calm     93% 0.3in /  7.62mm WeatherDisplay:10.37 W/m2 FEW
08:15 -2.1 °F /  -18.9 °C -3.1 °F /  -19.5 °C 998.9in /  33822.8hPa Calm     93% 0.3in /  7.62mm WeatherDisplay:10.37 W/m2 FEW
08:20 -2.1 °F /  -18.9 °C -3.1 °F /  -19.5 °C 999.2in /  33832.9hPa Calm     93% 0.3in /  7.62mm WeatherDisplay:10.37 W/m2 FEW
08:25 -2.2 °F /  -19 °C -3.2 °F /  -19.6 °C 999.2in /  33832.9hPa ENE 1.1mph /  1.8km/h 3.7mph /  6km/h 93% 0.3in /  7.62mm WeatherDisplay:10.37 W/m2 FEW
08:30 -2.2 °F /  -19 °C -3.2 °F /  -19.6 °C 999.2in /  33832.9hPa Calm     93% 0.3in /  7.62mm WeatherDisplay:10.37 W/m2 FEW
08:35 -2.2 °F /  -19 °C -3.2 °F /  -19.6 °C 999.2in /  33832.9hPa Calm     93% 0.3in /  7.62mm WeatherDisplay:10.37 W/m2 FEW
08:40 -2.2 °F /  -19 °C -3.2 °F /  -19.6 °C 999.2in /  33832.9hPa Calm     93% 0.3in /  7.62mm WeatherDisplay:10.37 W/m2 FEW
08:45 -2.2 °F /  -19 °C -3.2 °F /  -19.6 °C 999.2in /  33832.9hPa Calm     93% 0.3in /  7.62mm WeatherDisplay:10.37 W/m2 FEW
08:50 -2.3 °F /  -19.1 °C -3.3 °F /  -19.6 °C 999.5in /  33843.1hPa Calm     93% 0.3in /  7.62mm WeatherDisplay:10.37 W/m2 FEW
08:55 -2.2 °F /  -19 °C -3.2 °F /  -19.6 °C 999.5in /  33843.1hPa Calm     93% 0.3in /  7.62mm WeatherDisplay:10.37 W/m2 FEW
09:00 -2.2 °F /  -19 °C -3.2 °F /  -19.6 °C 999.5in /  33843.1hPa Calm     93% 0.0in /  0mm WeatherDisplay:10.37 W/m2 FEW
09:05 -2.2 °F /  -19 °C -3.2 °F /  -19.6 °C 999.5in /  33843.1hPa ENE 1.6mph /  2.6km/h 5.6mph /  9km/h 93% 0.0in /  0mm WeatherDisplay:10.37 W/m2 FEW
09:10 -2.3 °F /  -19.1 °C -3.3 °F /  -19.6 °C 999.5in /  33843.1hPa Calm     93% 0.0in /  0mm WeatherDisplay:10.37 W/m2 FEW
09:15 -2.3 °F /  -19.1 °C -3.3 °F /  -19.6 °C 999.5in /  33843.1hPa Calm     93% 0.0in /  0mm WeatherDisplay:10.37 W/m2 FEW
09:20 -2.3 °F /  -19.1 °C -3.3 °F /  -19.6 °C 999.9in /  33856.6hPa Calm     93% 0.0in /  0mm WeatherDisplay:10.37 W/m2 FEW
09:25 -2.3 °F /  -19.1 °C -3.3 °F /  -19.6 °C 999.9in /  33856.6hPa Calm     93% 0.0in /  0mm WeatherDisplay:10.37 W/m2 FEW
09:30 -2.3 °F /  -19.1 °C -3.3 °F /  -19.6 °C 999.9in /  33856.6hPa Calm     93% 0.0in /  0mm WeatherDisplay:10.37 W/m2 FEW
09:35 -2.3 °F /  -19.1 °C -3.3 °F /  -19.6 °C 999.9in /  33856.6hPa Calm     93% 0.0in /  0mm WeatherDisplay:10.37 W/m2 FEW
09:40 -2.3 °F /  -19.1 °C -3.3 °F /  -19.6 °C 999.9in /  33856.6hPa Calm     93% 0.0in /  0mm WeatherDisplay:10.37 W/m2 FEW
09:45 -2.2 °F /  -19 °C -3.2 °F /  -19.6 °C 999.9in /  33856.6hPa ENE 0.5mph /  0.8km/h 1.9mph /  3.1km/h 93% 0.0in /  0mm WeatherDisplay:10.37 W/m2 FEW
09:50 -2.2 °F /  -19 °C -3.2 °F /  -19.6 °C 999.9in /  33856.6hPa Calm     93% 0.0in /  0mm WeatherDisplay:10.37 W/m2 FEW
09:55 -2.2 °F /  -19 °C -3.2 °F /  -19.6 °C 999.9in /  33856.6hPa Calm     93% 0.0in /  0mm WeatherDisplay:10.37 W/m2 FEW
10:00 -2.2 °F /  -19 °C -3.2 °F /  -19.6 °C 1000.2in /  33866.8hPa Calm     93% 0.0in /  0mm WeatherDisplay:10.37 W/m2 FEW
10:05 -2.2 °F /  -19 °C -3.2 °F /  -19.6 °C 1000.2in /  33866.8hPa Calm     93% 0.0in /  0mm WeatherDisplay:10.37 W/m2 FEW
10:10 -2.2 °F /  -19 °C -3.2 °F /  -19.6 °C 1000.2in /  33866.8hPa Calm     93% 0.0in /  0mm WeatherDisplay:10.37 W/m2 FEW
10:15 -2.2 °F /  -19 °C -3.2 °F /  -19.6 °C 1000.2in /  33866.8hPa Calm     93% 0.0in /  0mm WeatherDisplay:10.37 W/m2 FEW
10:20 -2.2 °F /  -19 °C -3.2 °F /  -19.6 °C 1000.2in /  33866.8hPa Calm     93% 0.0in /  0mm WeatherDisplay:10.37 W/m2 FEW
10:25 -2.2 °F /  -19 °C -3.2 °F /  -19.6 °C 1000.6in /  33880.3hPa Calm     93% 0.0in /  0mm WeatherDisplay:10.37 W/m2 FEW
10:30 -2.2 °F /  -19 °C -3.2 °F /  -19.6 °C 1000.6in /  33880.3hPa Calm     93% 0.0in /  0mm WeatherDisplay:10.37 W/m2 FEW
10:35 -2.2 °F /  -19 °C -3.2 °F /  -19.6 °C 1000.6in /  33880.3hPa Calm     93% 0.0in /  0mm WeatherDisplay:10.37 W/m2 FEW
10:40 -2.2 °F /  -19 °C -3.2 °F /  -19.6 °C 1000.6in /  33880.3hPa Calm     93% 0.0in /  0mm WeatherDisplay:10.37 W/m2 FEW
10:45 -2.2 °F /  -19 °C -3.2 °F /  -19.6 °C 1000.6in /  33880.3hPa Calm     93% 0.0in /  0mm WeatherDisplay:10.37 W/m2 FEW
10:50 -2.2 °F /  -19 °C -3.2 °F /  -19.6 °C 1000.9in /  33890.5hPa Calm     93% 0.0in /  0mm WeatherDisplay:10.37 W/m2 FEW
10:55 -2.1 °F /  -18.9 °C -3.1 °F /  -19.5 °C 1000.9in /  33890.5hPa Calm     93% 0.0in /  0mm WeatherDisplay:10.37 W/m2 FEW
11:00 -2.1 °F /  -18.9 °C -3.1 °F /  -19.5 °C 1000.9in /  33890.5hPa Calm     93% 0.0in /  0mm WeatherDisplay:10.37 W/m2 FEW
11:05 -2.1 °F /  -18.9 °C -3.1 °F /  -19.5 °C 1000.9in /  33890.5hPa Calm     93% 0.0in /  0mm WeatherDisplay:10.37 W/m2 FEW
11:10 -2.1 °F /  -18.9 °C -3.1 °F /  -19.5 °C 1000.9in /  33890.5hPa Calm   1.9mph /  3.1km/h 93% 0.0in /  0mm WeatherDisplay:10.37 W/m2 FEW
11:15 -2.1 °F /  -18.9 °C -3.1 °F /  -19.5 °C 1001.2in /  33900.6hPa Calm     93% 0.0in /  0mm WeatherDisplay:10.37 W/m2 FEW
11:20 -2.1 °F /  -18.9 °C -3.1 °F /  -19.5 °C 1001.2in /  33900.6hPa ENE 0.3mph /  0.5km/h 3.2mph /  5.1km/h 93% 0.0in /  0mm WeatherDisplay:10.37 W/m2 FEW
11:25 -2.1 °F /  -18.9 °C -3.1 °F /  -19.5 °C 1001.2in /  33900.6hPa Calm     93% 0.0in /  0mm WeatherDisplay:10.37 W/m2 FEW
11:30 -2.1 °F /  -18.9 °C -3.1 °F /  -19.5 °C 1001.2in /  33900.6hPa NE 1.0mph /  1.6km/h 3.7mph /  6km/h 93% 0.0in /  0mm WeatherDisplay:10.37 W/m2 FEW
11:35 -2.2 °F /  -19 °C -3.2 °F /  -19.6 °C 1001.2in /  33900.6hPa NE 1.9mph /  3.1km/h   93% 0.0in /  0mm WeatherDisplay:10.37 W/m2 FEW
11:40 -2.2 °F /  -19 °C -3.3 °F /  -19.6 °C 1001.2in /  33900.6hPa NE 0.5mph /  0.8km/h 7.4mph /  11.9km/h 92% 0.0in /  0mm WeatherDisplay:10.37 W/m2 FEW
11:45 -2.2 °F /  -19 °C -3.3 °F /  -19.6 °C 1001.2in /  33900.6hPa Calm     92% 0.0in /  0mm WeatherDisplay:10.37 W/m2 FEW
11:50 -2.2 °F /  -19 °C -3.3 °F /  -19.6 °C 1001.2in /  33900.6hPa Calm     92% 0.0in /  0mm WeatherDisplay:10.37 W/m2 FEW
11:55 -2.2 °F /  -19 °C -3.3 °F /  -19.6 °C 1001.6in /  33914.2hPa Calm     92% 0.0in /  0mm WeatherDisplay:10.37 W/m2 FEW
12:00 -2.2 °F /  -19 °C -3.3 °F /  -19.6 °C 1001.6in /  33914.2hPa NE 1.0mph /  1.6km/h   92% 0.0in /  0mm WeatherDisplay:10.37 W/m2 FEW
12:05 -2.2 °F /  -19 °C -3.3 °F /  -19.6 °C 1001.6in /  33914.2hPa Calm     92% 0.0in /  0mm WeatherDisplay:10.37 W/m2 FEW
12:10 -2.2 °F /  -19 °C -3.5 °F /  -19.7 °C 1001.6in /  33914.2hPa NE 1.3mph /  2.1km/h 5.6mph /  9km/h 91% 0.0in /  0mm WeatherDisplay:10.37 W/m2 FEW
12:15 -2.2 °F /  -19 °C -3.5 °F /  -19.7 °C 1001.6in /  33914.2hPa NE 1.6mph /  2.6km/h 3.7mph /  6km/h 91% 0.0in /  0mm WeatherDisplay:10.37 W/m2 FEW
12:20 -2.2 °F /  -19 °C -3.4 °F /  -19.7 °C 1001.6in /  33914.2hPa Calm     91% 0.0in /  0mm WeatherDisplay:10.37 W/m2 FEW
12:25 -2.2 °F /  -19 °C -3.4 °F /  -19.7 °C 1001.6in /  33914.2hPa Calm     91% 0.0in /  0mm WeatherDisplay:10.37 W/m2 FEW
12:30 -2.2 °F /  -19 °C -3.4 °F /  -19.7 °C 1001.6in /  33914.2hPa Calm     91% 0.0in /  0mm WeatherDisplay:10.37 W/m2 FEW
12:35 -2.2 °F /  -19 °C -3.4 °F /  -19.7 °C 1001.6in /  33914.2hPa NE 2.1mph /  3.4km/h 3.2mph /  5.1km/h 91% 0.0in /  0mm WeatherDisplay:10.37 W/m2 FEW
12:40 -2.2 °F /  -19 °C -3.4 °F /  -19.7 °C 1001.9in /  33924.3hPa Calm     91% 0.0in /  0mm WeatherDisplay:10.37 W/m2 FEW
12:45 -2.1 °F /  -18.9 °C -3.4 °F /  -19.7 °C 1001.9in /  33924.3hPa NE 1.1mph /  1.8km/h 3.2mph /  5.1km/h 91% 0.0in /  0mm WeatherDisplay:10.37 W/m2 FEW
12:50 -2.1 °F /  -18.9 °C -3.4 °F /  -19.7 °C 1001.9in /  33924.3hPa NE 3.2mph /  5.1km/h 6.4mph /  10.3km/h 91% 0.0in /  0mm WeatherDisplay:10.37 W/m2 FEW
12:55 -2.2 °F /  -19 °C -3.4 °F /  -19.7 °C 1001.9in /  33924.3hPa Calm   5.6mph /  9km/h 91% 0.0in /  0mm WeatherDisplay:10.37 W/m2 FEW
13:00 -2.2 °F /  -19 °C -3.5 °F /  -19.7 °C 1001.9in /  33924.3hPa Calm   1.9mph /  3.1km/h 91% 0.0in /  0mm WeatherDisplay:10.37 W/m2 FEW
13:05 -2.2 °F /  -19 °C -3.5 °F /  -19.7 °C 1001.9in /  33924.3hPa Calm     91% 0.0in /  0mm WeatherDisplay:10.37 W/m2 FEW
13:10 -2.2 °F /  -19 °C -3.5 °F /  -19.7 °C 1001.9in /  33924.3hPa Calm     91% 0.0in /  0mm WeatherDisplay:10.37 W/m2 FEW
13:15 -2.2 °F /  -19 °C -3.4 °F /  -19.7 °C 1001.9in /  33924.3hPa Calm     91% 0.0in /  0mm WeatherDisplay:10.37 W/m2 FEW
13:20 -2.2 °F /  -19 °C -3.4 °F /  -19.7 °C 1001.9in /  33924.3hPa Calm     91% 0.0in /  0mm WeatherDisplay:10.37 W/m2 FEW
13:25 -2.2 °F /  -19 °C -3.4 °F /  -19.7 °C 1002.3in /  33937.9hPa Calm     91% 0.0in /  0mm WeatherDisplay:10.37 W/m2 FEW
13:30 -2.2 °F /  -19 °C -3.5 °F /  -19.7 °C 1002.3in /  33937.9hPa NE 0.3mph /  0.5km/h 1.9mph /  3.1km/h 91% 0.0in /  0mm WeatherDisplay:10.37 W/m2 FEW
13:35 -2.2 °F /  -19 °C -3.5 °F /  -19.7 °C 1002.3in /  33937.9hPa Calm   3.7mph /  6km/h 91% 0.0in /  0mm WeatherDisplay:10.37 W/m2 FEW
13:40 -2.2 °F /  -19 °C -3.3 °F /  -19.6 °C 1002.3in /  33937.9hPa Calm     92% 0.0in /  0mm WeatherDisplay:10.37 W/m2 FEW
13:45 -2.2 °F /  -19 °C -3.3 °F /  -19.6 °C 1002.3in /  33937.9hPa Calm     92% 0.0in /  0mm WeatherDisplay:10.37 W/m2 FEW
13:50 -2.2 °F /  -19 °C -3.3 °F /  -19.6 °C 1002.3in /  33937.9hPa Calm     92% 0.0in /  0mm WeatherDisplay:10.37 W/m2 FEW
13:55 -2.2 °F /  -19 °C -3.3 °F /  -19.6 °C 1002.6in /  33948hPa Calm     92% 0.0in /  0mm WeatherDisplay:10.37 W/m2 FEW
14:00 -2.3 °F /  -19.1 °C -3.4 °F /  -19.7 °C 1002.6in /  33948hPa Calm     92% 0.0in /  0mm WeatherDisplay:10.37 W/m2 FEW
14:05 -2.3 °F /  -19.1 °C -3.4 °F /  -19.7 °C 1002.6in /  33948hPa NE 0.2mph /  0.3km/h 1.6mph /  2.6km/h 92% 0.0in /  0mm WeatherDisplay:10.37 W/m2 FEW
14:10 -2.3 °F /  -19.1 °C -3.4 °F /  -19.7 °C 1002.6in /  33948hPa NE 1.4mph /  2.3km/h 5.6mph /  9km/h 92% 0.0in /  0mm WeatherDisplay:10.37 W/m2 FEW
14:15 -2.3 °F /  -19.1 °C -3.6 °F /  -19.8 °C 1002.6in /  33948hPa Calm     91% 0.0in /  0mm WeatherDisplay:10.37 W/m2 FEW
14:20 -2.3 °F /  -19.1 °C -3.4 °F /  -19.7 °C 1002.9in /  33958.2hPa Calm     92% 0.0in /  0mm WeatherDisplay:10.37 W/m2 FEW
14:25 -2.3 °F /  -19.1 °C -3.4 °F /  -19.7 °C 1002.9in /  33958.2hPa Calm     92% 0.0in /  0mm WeatherDisplay:10.37 W/m2 FEW
14:30 -2.4 °F /  -19.1 °C -3.5 °F /  -19.7 °C 1002.9in /  33958.2hPa Calm     92% 0.0in /  0mm WeatherDisplay:10.37 W/m2 FEW
14:35 -2.3 °F /  -19.1 °C -3.4 °F /  -19.7 °C 1002.9in /  33958.2hPa Calm     92% 0.0in /  0mm WeatherDisplay:10.37 W/m2 FEW
14:40 -2.3 °F /  -19.1 °C -3.4 °F /  -19.7 °C 1002.9in /  33958.2hPa Calm     92% 0.0in /  0mm WeatherDisplay:10.37 W/m2 FEW
14:45 -2.4 °F /  -19.1 °C -3.5 °F /  -19.7 °C 1002.9in /  33958.2hPa Calm     92% 0.0in /  0mm WeatherDisplay:10.37 W/m2 FEW
14:50 -2.4 °F /  -19.1 °C -3.5 °F /  -19.7 °C 1003.3in /  33971.7hPa Calm     92% 0.0in /  0mm WeatherDisplay:10.37 W/m2 FEW
14:55 -2.4 °F /  -19.1 °C -3.5 °F /  -19.7 °C 1003.3in /  33971.7hPa Calm     92% 0.0in /  0mm WeatherDisplay:10.37 W/m2 FEW
15:00 -2.4 °F /  -19.1 °C -3.5 °F /  -19.7 °C 1003.3in /  33971.7hPa Calm     92% 0.0in /  0mm WeatherDisplay:10.37 W/m2 FEW
15:05 -2.4 °F /  -19.1 °C -3.5 °F /  -19.7 °C 1003.3in /  33971.7hPa Calm     92% 0.0in /  0mm WeatherDisplay:10.37 W/m2 FEW
15:10 -2.4 °F /  -19.1 °C -3.5 °F /  -19.7 °C 1003.3in /  33971.7hPa Calm     92% 0.0in /  0mm WeatherDisplay:10.37 W/m2 FEW
15:15 -2.3 °F /  -19.1 °C -3.4 °F /  -19.7 °C 1003.6in /  33981.9hPa NE 1.3mph /  2.1km/h 1.6mph /  2.6km/h 92% 0.0in /  0mm WeatherDisplay:10.37 W/m2 FEW
15:20 -2.4 °F /  -19.1 °C -3.5 °F /  -19.7 °C 1003.6in /  33981.9hPa Calm     92% 0.0in /  0mm WeatherDisplay:10.37 W/m2 FEW
15:25 -2.4 °F /  -19.1 °C -3.6 °F /  -19.8 °C 1003.6in /  33981.9hPa Calm     92% 0.0in /  0mm WeatherDisplay:10.37 W/m2 FEW
15:30 -2.5 °F /  -19.2 °C -3.8 °F /  -19.9 °C 1003.6in /  33981.9hPa NE 1.6mph /  2.6km/h 3.7mph /  6km/h 91% 0.0in /  0mm WeatherDisplay:10.37 W/m2 FEW
15:35 -2.6 °F /  -19.2 °C -3.9 °F /  -19.9 °C 1003.9in /  33992.1hPa Calm     91% 0.0in /  0mm WeatherDisplay:10.37 W/m2 FEW
15:40 -2.7 °F /  -19.3 °C -3.9 °F /  -19.9 °C 1003.9in /  33992.1hPa Calm     91% 0.0in /  0mm WeatherDisplay:10.37 W/m2 FEW
15:45 -2.7 °F /  -19.3 °C -4.0 °F /  -20 °C 1003.9in /  33992.1hPa NE 1.1mph /  1.8km/h 5.6mph /  9km/h 91% 0.0in /  0mm WeatherDisplay:10.37 W/m2 FEW
15:50 -2.8 °F /  -19.3 °C -4.1 °F /  -20.1 °C 1003.9in /  33992.1hPa Calm     91% 0.0in /  0mm WeatherDisplay:10.37 W/m2 FEW
15:55 -2.8 °F /  -19.3 °C -4.1 °F /  -20.1 °C 1003.9in /  33992.1hPa Calm     91% 0.0in /  0mm WeatherDisplay:10.37 W/m2 FEW
16:00 -2.8 °F /  -19.3 °C -4.1 °F /  -20.1 °C 1003.9in /  33992.1hPa Calm     91% 0.3in /  7.62mm WeatherDisplay:10.37 W/m2 RA
16:05 -2.8 °F /  -19.3 °C -4.1 °F /  -20.1 °C 1003.9in /  33992.1hPa Calm     91% 0.3in /  7.62mm WeatherDisplay:10.37 W/m2 RA
16:10 -2.8 °F /  -19.3 °C -4.1 °F /  -20.1 °C 1004.3in /  34005.6hPa Calm     91% 0.3in /  7.62mm WeatherDisplay:10.37 W/m2 FEW
16:15 -2.8 °F /  -19.3 °C -4.1 °F /  -20.1 °C 1004.3in /  34005.6hPa Calm     91% 0.3in /  7.62mm WeatherDisplay:10.37 W/m2 FEW
16:20 -2.8 °F /  -19.3 °C -4.1 °F /  -20.1 °C 1004.3in /  34005.6hPa Calm     91% 0.3in /  7.62mm WeatherDisplay:10.37 W/m2 FEW
16:25 -2.8 °F /  -19.3 °C -4.1 °F /  -20.1 °C 1004.3in /  34005.6hPa Calm     91% 0.3in /  7.62mm WeatherDisplay:10.37 W/m2 FEW
16:30 -2.8 °F /  -19.3 °C -4.1 °F /  -20.1 °C 1004.3in /  34005.6hPa Calm     91% 0.3in /  7.62mm WeatherDisplay:10.37 W/m2 FEW
16:35 -2.8 °F /  -19.3 °C -4.1 °F /  -20.1 °C 1004.3in /  34005.6hPa Calm     91% 0.3in /  7.62mm WeatherDisplay:10.37 W/m2 FEW
16:40 -2.9 °F /  -19.4 °C -4.0 °F /  -20 °C 1004.3in /  34005.6hPa Calm     92% 0.3in /  7.62mm WeatherDisplay:10.37 W/m2 FEW
16:45 -2.9 °F /  -19.4 °C -4.1 °F /  -20.1 °C 1004.3in /  34005.6hPa Calm     92% 0.3in /  7.62mm WeatherDisplay:10.37 W/m2 FEW
16:50 -2.9 °F /  -19.4 °C -4.1 °F /  -20.1 °C 1004.6in /  34015.8hPa Calm     92% 0.3in /  7.62mm WeatherDisplay:10.37 W/m2 FEW
16:55 -3.0 °F /  -19.4 °C -4.1 °F /  -20.1 °C 1004.6in /  34015.8hPa Calm     92% 0.3in /  7.62mm WeatherDisplay:10.37 W/m2 FEW
17:00 -3.0 °F /  -19.4 °C -4.1 °F /  -20.1 °C 1004.6in /  34015.8hPa Calm     92% 0.0in /  0mm WeatherDisplay:10.37 W/m2 FEW
17:05 -3.1 °F /  -19.5 °C -4.2 °F /  -20.1 °C 1004.6in /  34015.8hPa NE 0.5mph /  0.8km/h 3.2mph /  5.1km/h 92% 0.0in /  0mm WeatherDisplay:10.37 W/m2 FEW
17:10 -3.1 °F /  -19.5 °C -4.2 °F /  -20.1 °C 1004.6in /  34015.8hPa Calm   5.6mph /  9km/h 92% 0.0in /  0mm WeatherDisplay:10.37 W/m2 FEW
17:15 -3.1 °F /  -19.5 °C -4.0 °F /  -20 °C 1004.6in /  34015.8hPa NE 3.2mph /  5.1km/h 5.6mph /  9km/h 93% 0.0in /  0mm WeatherDisplay:10.37 W/m2 FEW
17:20 -3.1 °F /  -19.5 °C -4.1 °F /  -20.1 °C 1004.6in /  34015.8hPa Calm     93% 0.0in /  0mm WeatherDisplay:10.37 W/m2 FEW
17:25 -3.1 °F /  -19.5 °C -4.0 °F /  -20 °C 1005.0in /  34029.3hPa Calm     93% 0.0in /  0mm WeatherDisplay:10.37 W/m2 FEW
17:30 -3.1 °F /  -19.5 °C -4.0 °F /  -20 °C 1005.0in /  34029.3hPa Calm     93% 0.0in /  0mm WeatherDisplay:10.37 W/m2 FEW
17:35 -3.1 °F /  -19.5 °C -4.0 °F /  -20 °C 1005.0in /  34029.3hPa Calm   5.6mph /  9km/h 93% 0.0in /  0mm WeatherDisplay:10.37 W/m2 FEW
17:40 -3.1 °F /  -19.5 °C -4.1 °F /  -20.1 °C 1005.0in /  34029.3hPa NE 1.3mph /  2.1km/h 1.6mph /  2.6km/h 93% 0.0in /  0mm WeatherDisplay:10.37 W/m2 FEW
17:45 -3.1 °F /  -19.5 °C -4.1 °F /  -20.1 °C 1005.0in /  34029.3hPa NE 1.1mph /  1.8km/h 4.8mph /  7.7km/h 93% 0.0in /  0mm WeatherDisplay:10.37 W/m2 FEW
17:50 -3.1 °F /  -19.5 °C -4.1 °F /  -20.1 °C 1005.0in /  34029.3hPa Calm   5.6mph /  9km/h 93% 0.0in /  0mm WeatherDisplay:10.37 W/m2 FEW
17:55 -3.1 °F /  -19.5 °C -4.1 °F /  -20.1 °C 1005.0in /  34029.3hPa Calm     93% 0.0in /  0mm WeatherDisplay:10.37 W/m2 FEW
18:00 -3.1 °F /  -19.5 °C -4.1 °F /  -20.1 °C 1005.0in /  34029.3hPa Calm     93% 0.0in /  0mm WeatherDisplay:10.37 W/m2 FEW
18:05 -3.1 °F /  -19.5 °C -4.1 °F /  -20.1 °C 1005.0in /  34029.3hPa Calm     93% 0.0in /  0mm WeatherDisplay:10.37 W/m2 FEW
18:10 -3.1 °F /  -19.5 °C -4.1 °F /  -20.1 °C 1005.3in /  34039.5hPa Calm     93% 0.0in /  0mm WeatherDisplay:10.37 W/m2 FEW
18:15 -3.1 °F /  -19.5 °C -4.1 °F /  -20.1 °C 1005.3in /  34039.5hPa NE 3.2mph /  5.1km/h 5.6mph /  9km/h 93% 0.0in /  0mm WeatherDisplay:10.37 W/m2 FEW
18:20 -3.1 °F /  -19.5 °C -4.1 °F /  -20.1 °C 1005.3in /  34039.5hPa Calm     93% 0.0in /  0mm WeatherDisplay:10.37 W/m2 FEW
18:25 -3.1 °F /  -19.5 °C -4.1 °F /  -20.1 °C 1005.3in /  34039.5hPa Calm     93% 0.0in /  0mm WeatherDisplay:10.37 W/m2 FEW
18:30 -3.1 °F /  -19.5 °C -4.1 °F /  -20.1 °C 1005.3in /  34039.5hPa Calm     93% 0.0in /  0mm WeatherDisplay:10.37 W/m2 FEW
18:35 -3.1 °F /  -19.5 °C -4.1 °F /  -20.1 °C 1005.3in /  34039.5hPa Calm     93% 0.0in /  0mm WeatherDisplay:10.37 W/m2 FEW
18:40 -3.1 °F /  -19.5 °C -4.1 °F /  -20.1 °C 1005.3in /  34039.5hPa Calm     93% 0.0in /  0mm WeatherDisplay:10.37 W/m2 FEW
18:45 -3.1 °F /  -19.5 °C -4.1 °F /  -20.1 °C 1005.3in /  34039.5hPa Calm     93% 0.0in /  0mm WeatherDisplay:10.37 W/m2 FEW
18:50 -3.2 °F /  -19.6 °C -4.1 °F /  -20.1 °C 1005.3in /  34039.5hPa Calm     93% 0.0in /  0mm WeatherDisplay:10.37 W/m2 FEW
18:55 -3.2 °F /  -19.6 °C -4.1 °F /  -20.1 °C 1005.6in /  34049.6hPa Calm     93% 0.0in /  0mm WeatherDisplay:10.37 W/m2 FEW
19:00 -3.2 °F /  -19.6 °C -4.2 °F /  -20.1 °C 1005.6in /  34049.6hPa Calm     93% 0.0in /  0mm WeatherDisplay:10.37 W/m2 FEW
19:05 -3.2 °F /  -19.6 °C -4.2 °F /  -20.1 °C 1005.6in /  34049.6hPa Calm     93% 0.0in /  0mm WeatherDisplay:10.37 W/m2 FEW
19:10 -3.2 °F /  -19.6 °C -4.2 °F /  -20.1 °C 1005.6in /  34049.6hPa Calm     93% 0.0in /  0mm WeatherDisplay:10.37 W/m2 FEW
19:15 -3.2 °F /  -19.6 °C -4.1 °F /  -20.1 °C 1005.6in /  34049.6hPa Calm     94% 0.0in /  0mm WeatherDisplay:10.37 W/m2 FEW
19:20 -3.2 °F /  -19.6 °C -4.1 °F /  -20.1 °C 1006.0in /  34063.2hPa Calm     94% 0.0in /  0mm WeatherDisplay:10.37 W/m2 FEW
19:25 -3.2 °F /  -19.6 °C -4.1 °F /  -20.1 °C 1006.0in /  34063.2hPa Calm     94% 0.0in /  0mm WeatherDisplay:10.37 W/m2 FEW
19:30 -3.2 °F /  -19.6 °C -4.0 °F /  -20 °C 1006.0in /  34063.2hPa Calm     94% 0.0in /  0mm WeatherDisplay:10.37 W/m2 FEW
19:35 -3.2 °F /  -19.6 °C -4.0 °F /  -20 °C 1006.0in /  34063.2hPa Calm     94% 0.0in /  0mm WeatherDisplay:10.37 W/m2 FEW
19:36 -3.2 °F /  -19.6 °C -4.0 °F /  -20 °C 1006.0in /  34063.2hPa Calm     94% 0.0in /  0mm WeatherDisplay:10.37 W/m2 FEW
19:41 -3.1 °F /  -19.5 °C -3.9 °F /  -19.9 °C 1006.0in /  34063.2hPa Calm     94% 0.0in /  0mm WeatherDisplay:10.37 W/m2 FEW
19:46 -3.1 °F /  -19.5 °C -3.9 °F /  -19.9 °C 1006.0in /  34063.2hPa Calm     94% 0.0in /  0mm WeatherDisplay:10.37 W/m2 FEW
19:51 -3.1 °F /  -19.5 °C -3.9 °F /  -19.9 °C 1006.0in /  34063.2hPa Calm     94% 0.3in /  7.62mm WeatherDisplay:10.37 W/m2 RA
19:56 -3.0 °F /  -19.4 °C -3.8 °F /  -19.9 °C 1006.0in /  34063.2hPa Calm     94% 0.3in /  7.62mm WeatherDisplay:10.37 W/m2 RA
20:01 -2.9 °F /  -19.4 °C -3.8 °F /  -19.9 °C 1006.3in /  34073.3hPa Calm     94% 0.3in /  7.62mm WeatherDisplay:10.37 W/m2 FEW
20:06 -2.9 °F /  -19.4 °C -3.8 °F /  -19.9 °C 1006.3in /  34073.3hPa Calm     94% 0.3in /  7.62mm WeatherDisplay:10.37 W/m2 FEW
20:11 -2.9 °F /  -19.4 °C -3.8 °F /  -19.9 °C 1006.3in /  34073.3hPa Calm     94% 0.3in /  7.62mm WeatherDisplay:10.37 W/m2 FEW
20:16 -2.9 °F /  -19.4 °C -3.8 °F /  -19.9 °C 1006.3in /  34073.3hPa Calm     94% 0.3in /  7.62mm WeatherDisplay:10.37 W/m2 FEW
20:21 -2.9 °F /  -19.4 °C -3.8 °F /  -19.9 °C 1006.3in /  34073.3hPa Calm     94% 0.3in /  7.62mm WeatherDisplay:10.37 W/m2 FEW
20:26 -2.9 °F /  -19.4 °C -3.7 °F /  -19.8 °C 1006.3in /  34073.3hPa Calm     94% 0.3in /  7.62mm WeatherDisplay:10.37 W/m2 FEW
20:31 -2.9 °F /  -19.4 °C -3.8 °F /  -19.9 °C 1006.3in /  34073.3hPa Calm     94% 0.3in /  7.62mm WeatherDisplay:10.37 W/m2 FEW
20:36 -2.8 °F /  -19.3 °C -3.7 °F /  -19.8 °C 1006.7in /  34086.9hPa Calm     94% 0.3in /  7.62mm WeatherDisplay:10.37 W/m2 FEW
20:41 -2.8 °F /  -19.3 °C -3.7 °F /  -19.8 °C 1006.7in /  34086.9hPa Calm     94% 0.3in /  7.62mm WeatherDisplay:10.37 W/m2 FEW
20:46 -2.9 °F /  -19.4 °C -3.8 °F /  -19.9 °C 1006.7in /  34086.9hPa Calm   1.9mph /  3.1km/h 94% 0.3in /  7.62mm WeatherDisplay:10.37 W/m2 FEW
20:51 -3.0 °F /  -19.4 °C -4.0 °F /  -20 °C 1006.7in /  34086.9hPa NE 1.0mph /  1.6km/h 1.6mph /  2.6km/h 93% 0.0in /  0mm WeatherDisplay:10.37 W/m2 FEW
20:56 -3.1 °F /  -19.5 °C -4.0 °F /  -20 °C 1007.0in /  34097hPa Calm     93% 0.0in /  0mm WeatherDisplay:10.37 W/m2 FEW
21:01 -3.1 °F /  -19.5 °C -4.1 °F /  -20.1 °C 1007.0in /  34097hPa Calm     93% 0.0in /  0mm WeatherDisplay:10.37 W/m2 FEW
21:06 -3.1 °F /  -19.5 °C -4.1 °F /  -20.1 °C 1007.0in /  34097hPa Calm     93% 0.0in /  0mm WeatherDisplay:10.37 W/m2 FEW
21:11 -3.1 °F /  -19.5 °C -4.1 °F /  -20.1 °C 1007.0in /  34097hPa Calm     93% 0.0in /  0mm WeatherDisplay:10.37 W/m2 FEW
21:16 -3.1 °F /  -19.5 °C -4.1 °F /  -20.1 °C 1007.0in /  34097hPa Calm     93% 0.0in /  0mm WeatherDisplay:10.37 W/m2 FEW
21:21 -3.1 °F /  -19.5 °C -4.0 °F /  -20 °C 1007.0in /  34097hPa Calm     93% 0.0in /  0mm WeatherDisplay:10.37 W/m2 FEW
21:26 -3.1 °F /  -19.5 °C -4.0 °F /  -20 °C 1007.0in /  34097hPa Calm     93% 0.0in /  0mm WeatherDisplay:10.37 W/m2 FEW
21:31 -3.1 °F /  -19.5 °C -4.0 °F /  -20 °C 1007.0in /  34097hPa Calm     93% 0.0in /  0mm WeatherDisplay:10.37 W/m2 FEW
21:36 -3.1 °F /  -19.5 °C -4.1 °F /  -20.1 °C 1007.0in /  34097hPa Calm     93% 0.0in /  0mm WeatherDisplay:10.37 W/m2 FEW
21:41 -3.2 °F /  -19.6 °C -4.1 °F /  -20.1 °C 1007.0in /  34097hPa Calm     93% 0.0in /  0mm WeatherDisplay:10.37 W/m2 FEW
21:46 -3.2 °F /  -19.6 °C -4.1 °F /  -20.1 °C 1007.0in /  34097hPa Calm     93% 0.0in /  0mm WeatherDisplay:10.37 W/m2 FEW
21:51 -3.2 °F /  -19.6 °C -4.2 °F /  -20.1 °C 1007.3in /  34107.2hPa Calm     93% 0.0in /  0mm WeatherDisplay:10.37 W/m2 FEW
21:56 -3.2 °F /  -19.6 °C -4.2 °F /  -20.1 °C 1007.3in /  34107.2hPa Calm     93% 0.0in /  0mm WeatherDisplay:10.37 W/m2 FEW
22:01 -3.3 °F /  -19.6 °C -4.4 °F /  -20.2 °C 1007.3in /  34107.2hPa Calm     92% 0.0in /  0mm WeatherDisplay:10.37 W/m2 FEW
22:06 -3.3 °F /  -19.6 °C -4.4 °F /  -20.2 °C 1007.3in /  34107.2hPa Calm     92% 0.0in /  0mm WeatherDisplay:10.37 W/m2 FEW
22:11 -3.3 °F /  -19.6 °C -4.4 °F /  -20.2 °C 1007.3in /  34107.2hPa Calm     92% 0.0in /  0mm WeatherDisplay:10.37 W/m2 FEW
22:16 -3.3 °F /  -19.6 °C -4.4 °F /  -20.2 °C 1007.3in /  34107.2hPa Calm     92% 0.0in /  0mm WeatherDisplay:10.37 W/m2 FEW
22:21 -3.3 °F /  -19.6 °C -4.4 °F /  -20.2 °C 1007.3in /  34107.2hPa Calm     92% 0.0in /  0mm WeatherDisplay:10.37 W/m2 FEW
22:26 -3.3 °F /  -19.6 °C -4.4 °F /  -20.2 °C 1007.3in /  34107.2hPa Calm     92% 0.0in /  0mm WeatherDisplay:10.37 W/m2 FEW
22:31 -3.2 °F /  -19.6 °C -4.3 °F /  -20.2 °C 1007.7in /  34120.7hPa Calm     92% 0.0in /  0mm WeatherDisplay:10.37 W/m2 FEW
22:37 -3.3 °F /  -19.6 °C -4.4 °F /  -20.2 °C 1007.7in /  34120.7hPa Calm     92% 0.0in /  0mm WeatherDisplay:10.37 W/m2 FEW
22:42 -3.3 °F /  -19.6 °C -4.4 °F /  -20.2 °C 1007.7in /  34120.7hPa Calm     92% 0.0in /  0mm WeatherDisplay:10.37 W/m2 FEW
22:47 -3.4 °F /  -19.7 °C -4.5 °F /  -20.3 °C 1007.7in /  34120.7hPa Calm     92% 0.0in /  0mm WeatherDisplay:10.37 W/m2 FEW
22:52 -3.4 °F /  -19.7 °C -4.5 °F /  -20.3 °C 1007.7in /  34120.7hPa Calm     92% 0.0in /  0mm WeatherDisplay:10.37 W/m2 FEW
22:57 -3.4 °F /  -19.7 °C -4.6 °F /  -20.3 °C 1007.7in /  34120.7hPa Calm     92% 0.0in /  0mm WeatherDisplay:10.37 W/m2 FEW
23:02 -3.4 °F /  -19.7 °C -4.6 °F /  -20.3 °C 1007.7in /  34120.7hPa Calm     92% 0.0in /  0mm WeatherDisplay:10.37 W/m2 FEW
23:07 -3.5 °F /  -19.7 °C -4.6 °F /  -20.3 °C 1007.7in /  34120.7hPa Calm     92% 0.0in /  0mm WeatherDisplay:10.37 W/m2 FEW
23:12 -3.5 °F /  -19.7 °C -4.6 °F /  -20.3 °C 1008.0in /  34130.9hPa Calm     92% 0.0in /  0mm WeatherDisplay:10.37 W/m2 FEW
23:18 -3.6 °F /  -19.8 °C -4.8 °F /  -20.4 °C 1008.0in /  34130.9hPa Calm     91% 0.0in /  0mm WeatherDisplay:10.37 W/m2 FEW
23:23 -3.6 °F /  -19.8 °C -4.8 °F /  -20.4 °C 1008.0in /  34130.9hPa Calm     91% 0.0in /  0mm WeatherDisplay:10.37 W/m2 FEW
23:28 -3.6 °F /  -19.8 °C -4.9 °F /  -20.5 °C 1008.0in /  34130.9hPa Calm     91% 0.0in /  0mm WeatherDisplay:10.37 W/m2 FEW
23:33 -3.6 °F /  -19.8 °C -4.9 °F /  -20.5 °C 1008.0in /  34130.9hPa Calm     91% 0.0in /  0mm WeatherDisplay:10.37 W/m2 FEW
23:38 -3.6 °F /  -19.8 °C -4.9 °F /  -20.5 °C 1008.0in /  34130.9hPa Calm     91% 0.0in /  0mm WeatherDisplay:10.37 W/m2 FEW
23:43 -3.6 °F /  -19.8 °C -4.9 °F /  -20.5 °C 1008.0in /  34130.9hPa Calm     91% 0.0in /  0mm WeatherDisplay:10.37 W/m2 FEW
23:48 -3.6 °F /  -19.8 °C -4.8 °F /  -20.4 °C 1008.0in /  34130.9hPa Calm     91% 0.0in /  0mm WeatherDisplay:10.37 W/m2 FEW
23:53 -3.6 °F /  -19.8 °C -4.8 °F /  -20.4 °C 1008.0in /  34130.9hPa Calm     91% 0.0in /  0mm WeatherDisplay:10.37 W/m2 FEW
23:58 -3.6 °F /  -19.8 °C -4.8 °F /  -20.4 °C 1008.0in /  34130.9hPa Calm     91% 0.0in /  0mm WeatherDisplay:10.37 W/m2 FEW
Tuulensuunkaari, Veikkola, Suomi
Compliments of Weather Underground - 2.75 mb